Time;durP1;ratioP1;P1;durP2;ratioP2;P2;SDS_P1;SDS_P2;PMS_P1;PMS_P2;Temp;Humidity;BMP_temperature;BMP_pressure;BME280_temperature;BME280_humidity;BME280_pressure;Samples;Min_cycle;Max_cycle;Signal;HPM_P1;HPM_P2
2023/07/29 00:00:57;;;;;;;3.10;2.90;;;20.80;99.90;;;;;;5034201;28;20627;-77
2023/07/29 00:03:23;;;;;;;3.00;2.80;;;20.70;99.90;;;;;;5033868;28;20180;-76
2023/07/29 00:05:49;;;;;;;2.87;2.67;;;20.70;99.90;;;;;;5033811;28;20566;-75
2023/07/29 00:08:15;;;;;;;3.23;3.00;;;20.70;99.90;;;;;;5033986;28;20196;-75
2023/07/29 00:10:40;;;;;;;3.30;3.10;;;20.70;99.90;;;;;;5034013;28;20176;-77
2023/07/29 00:13:07;;;;;;;3.10;2.90;;;20.60;99.90;;;;;;5033732;28;20520;-76
2023/07/29 00:15:33;;;;;;;3.83;2.80;;;20.70;99.90;;;;;;5034757;28;20184;-77
2023/07/29 00:17:59;;;;;;;3.90;2.90;;;20.70;99.90;;;;;;5036839;28;20187;-77
2023/07/29 00:20:24;;;;;;;3.03;2.83;;;20.70;99.90;;;;;;5036913;28;20218;-77
2023/07/29 00:22:52;;;;;;;2.87;2.67;;;20.60;99.90;;;;;;5018207;28;20271;-77
2023/07/29 00:25:18;;;;;;;3.53;2.60;;;20.50;99.90;;;;;;5035139;28;20208;-75
2023/07/29 00:27:44;;;;;;;3.20;2.87;;;20.60;99.90;;;;;;5035068;28;20184;-76
2023/07/29 00:30:10;;;;;;;2.90;2.80;;;20.70;99.90;;;;;;5035345;28;20173;-75
2023/07/29 00:32:37;;;;;;;5.70;4.03;;;20.70;99.90;;;;;;5035497;28;20196;-77
2023/07/29 00:35:02;;;;;;;3.37;3.10;;;20.60;99.90;;;;;;5036403;28;20180;-74
2023/07/29 00:37:30;;;;;;;3.00;2.80;;;20.50;99.90;;;;;;5046500;28;20176;-76
2023/07/29 00:39:57;;;;;;;3.10;2.90;;;20.50;99.90;;;;;;5037023;28;20186;-76
2023/07/29 00:42:23;;;;;;;3.07;2.87;;;20.50;99.90;;;;;;5016884;28;20192;-75
2023/07/29 00:44:49;;;;;;;2.70;2.53;;;20.50;99.90;;;;;;5033439;28;20603;-76
2023/07/29 00:47:15;;;;;;;3.00;2.80;;;20.50;99.90;;;;;;5034059;28;20215;-75
2023/07/29 00:49:44;;;;;;;3.07;2.87;;;20.50;99.90;;;;;;5033759;28;20168;-76
2023/07/29 00:52:12;;;;;;;4.07;2.83;;;20.50;99.90;;;;;;5033529;28;20296;-76
2023/07/29 00:54:41;;;;;;;2.83;2.70;;;20.50;99.90;;;;;;5033848;28;20555;-75
2023/07/29 00:57:08;;;;;;;3.67;2.70;;;20.50;99.90;;;;;;5033668;28;20191;-78
2023/07/29 00:59:36;;;;;;;2.60;2.50;;;20.50;99.90;;;;;;5051168;28;20572;-78
2023/07/29 01:02:02;;;;;;;3.10;2.90;;;20.50;99.90;;;;;;5034236;28;20176;-78
2023/07/29 01:04:31;;;;;;;2.77;2.57;;;20.50;99.90;;;;;;5034005;28;20176;-77
2023/07/29 01:07:11;;;;;;;2.80;2.70;;;20.50;99.90;;;;;;5034082;28;20204;-76
2023/07/29 01:09:50;;;;;;;2.87;2.67;;;20.40;99.90;;;;;;5040245;28;20160;-76
2023/07/29 01:12:29;;;;;;;2.60;2.40;;;20.50;99.90;;;;;;5043263;28;20160;-75
2023/07/29 01:15:24;;;;;;;3.00;2.70;;;20.50;99.90;;;;;;5033626;28;20153;-75
2023/07/29 01:17:55;;;;;;;2.90;2.70;;;20.40;99.90;;;;;;5033875;28;20165;-78
2023/07/29 01:20:23;;;;;;;3.13;2.90;;;20.40;99.90;;;;;;5032848;28;20650;-77
2023/07/29 01:22:49;;;;;;;3.07;2.87;;;20.40;99.90;;;;;;5032988;28;20191;-74
2023/07/29 01:25:15;;;;;;;2.87;2.33;;;20.30;99.90;;;;;;5032770;28;20676;-76
2023/07/29 01:27:47;;;;;;;2.40;2.30;;;20.30;99.90;;;;;;5033199;28;20184;-76
2023/07/29 01:30:13;;;;;;;3.30;3.10;;;20.20;99.90;;;;;;5033599;28;20516;-76
2023/07/29 01:32:54;;;;;;;3.10;2.90;;;20.20;99.90;;;;;;5033237;28;20180;-76
2023/07/29 01:35:36;;;;;;;3.00;2.80;;;20.10;99.90;;;;;;5040869;28;20191;-76
2023/07/29 01:38:31;;;;;;;2.77;2.60;;;20.10;99.90;;;;;;5051282;28;20164;-75
2023/07/29 01:40:59;;;;;;;3.20;3.00;;;20.00;99.90;;;;;;5036659;28;20172;-76
2023/07/29 01:43:25;;;;;;;4.53;3.03;;;20.00;99.90;;;;;;5058368;28;20184;-76
2023/07/29 01:45:51;;;;;;;2.67;2.57;;;20.00;99.90;;;;;;5048024;28;20283;-76
2023/07/29 01:48:17;;;;;;;3.53;2.57;;;19.90;99.90;;;;;;5040072;28;20250;-77
2023/07/29 01:50:43;;;;;;;2.70;2.60;;;19.90;99.90;;;;;;5036219;28;20175;-75
2023/07/29 01:53:09;;;;;;;2.70;2.60;;;19.90;99.90;;;;;;5036188;28;20238;-76
2023/07/29 01:55:35;;;;;;;3.10;2.90;;;19.90;99.90;;;;;;5036154;28;20267;-79
2023/07/29 01:58:00;;;;;;;2.97;2.77;;;19.90;99.90;;;;;;5035810;28;20196;-77
2023/07/29 02:00:26;;;;;;;2.80;2.60;;;19.90;99.90;;;;;;5036411;28;20208;-76
2023/07/29 02:02:52;;;;;;;3.43;2.47;;;19.80;99.90;;;;;;5036438;28;20208;-77
2023/07/29 02:05:18;;;;;;;3.00;2.80;;;19.80;99.90;;;;;;5037035;28;20671;-75
2023/07/29 02:07:43;;;;;;;2.90;2.70;;;19.70;99.90;;;;;;5037813;28;20149;-76
2023/07/29 02:10:09;;;;;;;3.00;2.80;;;19.70;99.90;;;;;;5037067;28;20184;-75
2023/07/29 02:12:35;;;;;;;2.73;2.53;;;19.70;99.90;;;;;;5037759;28;20226;-77
2023/07/29 02:15:01;;;;;;;2.93;2.70;;;19.70;99.90;;;;;;5048813;28;20187;-76
2023/07/29 02:17:26;;;;;;;2.70;2.60;;;19.70;99.90;;;;;;5052233;28;20176;-75
2023/07/29 02:19:52;;;;;;;2.70;2.50;;;19.70;99.90;;;;;;5037475;28;20652;-76
2023/07/29 02:22:18;;;;;;;2.73;2.53;;;19.70;99.90;;;;;;5036148;28;20628;-76
2023/07/29 02:24:44;;;;;;;2.40;2.30;;;19.60;99.90;;;;;;5035727;28;20187;-75
2023/07/29 02:27:10;;;;;;;2.90;2.70;;;19.60;99.90;;;;;;5035497;28;20672;-75
2023/07/29 02:29:36;;;;;;;3.30;3.00;;;19.60;99.90;;;;;;5035905;28;20264;-76
2023/07/29 02:32:03;;;;;;;2.80;2.60;;;19.60;99.90;;;;;;5018733;28;20275;-75
2023/07/29 02:34:32;;;;;;;2.67;2.57;;;19.60;99.90;;;;;;5042551;28;20203;-76
2023/07/29 02:36:57;;;;;;;2.80;2.60;;;19.60;99.90;;;;;;5054252;28;20164;-78
2023/07/29 02:39:23;;;;;;;3.33;3.03;;;19.50;99.90;;;;;;5046320;28;20640;-75
2023/07/29 02:41:49;;;;;;;3.10;2.80;;;19.50;99.90;;;;;;5042826;28;20205;-75
2023/07/29 02:44:16;;;;;;;3.30;3.00;;;19.50;99.90;;;;;;5035644;28;20707;-77
2023/07/29 02:46:41;;;;;;;2.97;2.70;;;19.50;99.90;;;;;;5047784;28;20196;-76
2023/07/29 02:49:07;;;;;;;3.33;3.00;;;19.50;99.90;;;;;;5043003;28;20183;-76
2023/07/29 02:51:33;;;;;;;3.23;3.03;;;19.40;99.90;;;;;;5035226;28;20876;-78
2023/07/29 02:53:59;;;;;;;3.67;3.40;;;19.40;99.90;;;;;;5017100;28;20188;-76
2023/07/29 02:56:25;;;;;;;3.30;3.00;;;19.40;99.90;;;;;;5017671;28;20183;-77
2023/07/29 02:58:53;;;;;;;3.13;2.93;;;19.40;99.90;;;;;;5035615;28;20169;-79
2023/07/29 03:01:19;;;;;;;3.30;3.10;;;19.40;99.90;;;;;;5035008;28;20259;-77
2023/07/29 03:03:45;;;;;;;3.30;3.03;;;19.40;99.90;;;;;;5035187;28;20199;-76
2023/07/29 03:06:14;;;;;;;3.00;2.83;;;19.40;99.90;;;;;;5016925;28;20208;-77
2023/07/29 03:08:39;;;;;;;3.13;2.93;;;19.40;99.90;;;;;;5035091;28;20179;-75
2023/07/29 03:11:10;;;;;;;4.03;3.40;;;19.30;99.90;;;;;;5034688;28;20177;-75
2023/07/29 03:13:37;;;;;;;3.00;2.80;;;19.30;99.90;;;;;;5034339;28;20651;-74
2023/07/29 03:16:13;;;;;;;2.83;2.63;;;19.40;99.90;;;;;;5034309;28;20172;-77
2023/07/29 03:18:39;;;;;;;3.23;3.03;;;19.40;99.90;;;;;;5034883;28;20160;-77
2023/07/29 03:21:05;;;;;;;6.43;3.03;;;19.40;99.90;;;;;;5034767;28;20168;-75
2023/07/29 03:23:35;;;;;;;3.40;3.20;;;19.40;99.90;;;;;;5034659;28;20172;-75
2023/07/29 03:26:04;;;;;;;2.93;2.80;;;18.30;99.90;;;;;;5034689;28;20231;-76
2023/07/29 03:28:32;;;;;;;2.97;2.83;;;19.50;99.90;;;;;;5016670;28;20279;-74
2023/07/29 03:30:58;;;;;;;3.10;2.90;;;19.60;99.90;;;;;;5034297;28;20187;-76
2023/07/29 03:33:25;;;;;;;3.40;3.20;;;19.60;99.90;;;;;;5034493;28;20624;-77
2023/07/29 03:35:51;;;;;;;3.30;2.93;;;19.60;99.90;;;;;;5035499;28;20216;-78
2023/07/29 03:38:17;;;;;;;3.13;2.97;;;19.60;99.90;;;;;;5034482;28;20239;-79
2023/07/29 03:40:43;;;;;;;2.90;2.80;;;19.70;99.90;;;;;;5037706;28;20172;-75
2023/07/29 03:43:09;;;;;;;3.00;2.80;;;19.70;99.90;;;;;;5041299;28;20169;-76
2023/07/29 03:45:36;;;;;;;3.33;3.07;;;19.70;99.90;;;;;;5054150;28;20231;-76
2023/07/29 03:48:04;;;;;;;2.87;2.67;;;19.70;99.90;;;;;;5042632;28;20168;-75
2023/07/29 03:50:30;;;;;;;2.73;2.50;;;19.70;99.90;;;;;;5036479;28;20169;-76
2023/07/29 03:52:56;;;;;;;3.87;3.57;;;19.60;99.90;;;;;;5038214;28;20263;-75
2023/07/29 03:55:22;;;;;;;3.33;2.70;;;19.60;99.90;;;;;;5029254;28;20164;-75
2023/07/29 03:57:48;;;;;;;2.80;2.70;;;19.60;99.90;;;;;;5045808;28;20624;-77
2023/07/29 04:00:14;;;;;;;2.83;2.70;;;19.60;99.90;;;;;;5034164;28;20164;-76
2023/07/29 04:02:40;;;;;;;2.90;2.70;;;19.60;99.90;;;;;;5032929;28;20749;-75
2023/07/29 04:05:08;;;;;;;3.23;2.90;;;19.60;99.90;;;;;;5033061;28;20193;-77
2023/07/29 04:07:37;;;;;;;3.10;2.80;;;19.60;99.90;;;;;;5034551;28;20177;-76
2023/07/29 04:10:04;;;;;;;3.03;2.83;;;18.60;99.90;;;;;;5026778;28;20628;-76
2023/07/29 04:12:30;;;;;;;3.47;2.90;;;19.50;99.90;;;;;;5046262;28;20583;-76
2023/07/29 04:14:56;;;;;;;3.20;3.00;;;19.50;99.90;;;;;;5036164;28;20161;-75
2023/07/29 04:17:22;;;;;;;3.20;3.00;;;19.50;99.90;;;;;;5034181;28;20260;-77
2023/07/29 04:19:47;;;;;;;3.20;3.00;;;19.50;99.90;;;;;;5034535;28;20232;-74
2023/07/29 04:22:15;;;;;;;2.83;2.67;;;19.60;99.90;;;;;;5034145;28;20180;-77
2023/07/29 04:24:41;;;;;;;3.10;2.90;;;19.60;99.90;;;;;;5043470;28;20200;-76
2023/07/29 04:27:06;;;;;;;3.23;2.93;;;19.60;99.90;;;;;;5035279;28;20250;-75
2023/07/29 04:29:32;;;;;;;3.23;3.03;;;19.60;99.90;;;;;;5033125;28;20178;-78
2023/07/29 04:31:58;;;;;;;2.97;2.77;;;19.60;99.90;;;;;;5015824;28;20181;-77
2023/07/29 04:34:24;;;;;;;3.67;3.33;;;19.70;99.90;;;;;;5033190;28;20191;-78
2023/07/29 04:36:49;;;;;;;2.90;2.70;;;19.60;99.90;;;;;;5033134;28;20169;-77
2023/07/29 04:39:15;;;;;;;3.47;3.17;;;19.60;99.90;;;;;;5032995;28;20248;-77
2023/07/29 04:41:41;;;;;;;3.77;3.47;;;19.60;99.90;;;;;;5033438;28;20259;-76
2023/07/29 04:44:07;;;;;;;4.83;3.00;;;19.70;99.90;;;;;;5033344;28;20224;-78
2023/07/29 04:46:35;;;;;;;2.80;2.60;;;19.70;99.90;;;;;;5015238;28;20208;-75
2023/07/29 04:49:02;;;;;;;2.70;2.57;;;19.70;99.90;;;;;;5015229;28;20647;-77
2023/07/29 04:51:28;;;;;;;3.50;3.30;;;19.80;99.90;;;;;;5033223;28;20538;-77
2023/07/29 04:53:54;;;;;;;4.80;2.97;;;19.90;99.90;;;;;;5032906;28;20173;-76
2023/07/29 04:56:20;;;;;;;4.47;2.97;;;20.00;99.90;;;;;;5015365;28;20241;-77
2023/07/29 04:58:45;;;;;;;2.77;2.60;;;20.10;99.90;;;;;;5032737;28;20169;-77
2023/07/29 05:01:11;;;;;;;3.20;2.90;;;20.20;99.90;;;;;;5032581;28;20173;-76
2023/07/29 05:03:39;;;;;;;3.47;3.17;;;20.20;99.90;;;;;;5032801;28;20183;-76
2023/07/29 05:06:05;;;;;;;3.30;3.10;;;20.20;99.90;;;;;;5014689;28;20668;-76
2023/07/29 05:08:31;;;;;;;3.40;3.10;;;20.20;99.90;;;;;;5033838;28;20255;-78
2023/07/29 05:10:57;;;;;;;3.50;3.13;;;20.20;99.90;;;;;;5036175;28;20172;-77
2023/07/29 05:13:23;;;;;;;2.87;2.67;;;20.10;99.90;;;;;;5036394;28;20191;-77
2023/07/29 05:15:49;;;;;;;3.17;2.87;;;20.00;99.90;;;;;;5018435;28;20180;-76
2023/07/29 05:18:16;;;;;;;3.10;2.90;;;20.00;99.90;;;;;;5036508;28;20173;-77
2023/07/29 05:20:42;;;;;;;4.17;2.90;;;19.90;99.90;;;;;;5039111;28;20165;-76
2023/07/29 05:23:08;;;;;;;3.13;2.93;;;19.90;99.90;;;;;;5019906;28;20663;-76
2023/07/29 05:25:36;;;;;;;2.97;2.70;;;20.00;99.90;;;;;;5045438;28;20184;-77
2023/07/29 05:28:03;;;;;;;4.37;3.20;;;20.00;99.90;;;;;;5038223;28;20211;-77
2023/07/29 05:30:31;;;;;;;3.40;3.20;;;20.10;99.90;;;;;;5044219;28;20180;-78
2023/07/29 05:33:00;;;;;;;3.00;2.80;;;20.10;99.90;;;;;;5030232;28;20176;-79
2023/07/29 05:35:26;;;;;;;4.57;3.47;;;20.20;99.90;;;;;;5053772;28;20177;-76
2023/07/29 05:37:52;;;;;;;3.03;2.83;;;20.20;99.90;;;;;;5045499;28;20512;-77
2023/07/29 05:40:18;;;;;;;2.87;2.67;;;20.20;99.90;;;;;;5038785;28;20705;-77
2023/07/29 05:42:45;;;;;;;3.80;3.13;;;20.10;99.90;;;;;;5020488;28;20208;-77
2023/07/29 05:45:11;;;;;;;2.97;2.77;;;20.20;99.90;;;;;;5037685;28;20220;-77
2023/07/29 05:47:37;;;;;;;3.97;2.97;;;20.10;99.90;;;;;;5038552;28;20173;-79
2023/07/29 05:50:04;;;;;;;3.13;2.93;;;20.10;99.90;;;;;;5041484;28;20168;-77
2023/07/29 05:52:31;;;;;;;3.13;2.93;;;20.10;99.90;;;;;;5049972;28;20180;-78
2023/07/29 05:54:57;;;;;;;2.97;2.77;;;20.10;99.90;;;;;;5053280;28;20172;-77
2023/07/29 05:57:22;;;;;;;3.17;2.80;;;20.10;99.90;;;;;;5052852;28;20232;-74
2023/07/29 05:59:48;;;;;;;3.13;2.83;;;20.10;99.90;;;;;;5053252;28;20239;-77
2023/07/29 06:02:14;;;;;;;3.57;3.10;;;20.20;99.90;;;;;;5052530;28;20175;-78
2023/07/29 06:04:40;;;;;;;2.90;2.70;;;20.20;99.90;;;;;;5051282;28;20161;-74
2023/07/29 06:07:06;;;;;;;2.90;2.60;;;20.20;99.90;;;;;;5051082;28;20266;-75
2023/07/29 06:09:32;;;;;;;2.73;2.53;;;20.30;99.90;;;;;;5052566;28;20169;-76
2023/07/29 06:11:57;;;;;;;3.03;2.83;;;20.30;99.90;;;;;;5051789;28;20259;-75
2023/07/29 06:14:26;;;;;;;3.10;2.87;;;20.30;99.90;;;;;;5053958;28;20169;-77
2023/07/29 06:16:52;;;;;;;3.47;2.90;;;20.30;99.90;;;;;;5050382;28;20165;-77
2023/07/29 06:19:20;;;;;;;2.70;2.60;;;20.40;99.90;;;;;;5022421;28;20180;-77
2023/07/29 06:21:46;;;;;;;3.00;2.80;;;20.50;99.90;;;;;;5040505;28;20220;-78
2023/07/29 06:24:12;;;;;;;2.70;2.60;;;20.60;99.90;;;;;;5038918;28;20207;-75
2023/07/29 06:26:37;;;;;;;3.00;2.63;;;20.70;99.90;;;;;;5041511;28;20196;-75
2023/07/29 06:29:03;;;;;;;2.70;2.60;;;20.70;99.90;;;;;;5040541;28;20513;-75
2023/07/29 06:31:29;;;;;;;2.93;2.63;;;20.80;99.90;;;;;;5036875;28;20669;-75
2023/07/29 06:33:55;;;;;;;5.40;3.27;;;20.90;99.90;;;;;;5038003;28;20179;-77
2023/07/29 06:36:21;;;;;;;2.60;2.50;;;21.00;99.90;;;;;;5038827;28;20627;-77
2023/07/29 06:38:47;;;;;;;2.90;2.70;;;21.00;99.90;;;;;;5002770;28;20180;-77
2023/07/29 06:41:13;;;;;;;3.67;3.37;;;21.10;99.90;;;;;;5036617;28;20172;-77
2023/07/29 06:43:39;;;;;;;3.33;2.80;;;21.10;99.90;;;;;;5036038;28;20204;-76
2023/07/29 06:46:05;;;;;;;2.70;2.60;;;21.30;99.90;;;;;;5035893;28;20617;-75
2023/07/29 06:48:30;;;;;;;3.10;2.90;;;21.40;99.90;;;;;;5036012;28;20168;-76
2023/07/29 06:51:00;;;;;;;3.23;2.87;;;21.30;99.90;;;;;;5035565;28;20203;-76
2023/07/29 06:53:26;;;;;;;3.33;3.03;;;21.20;99.90;;;;;;5035542;28;20173;-76
2023/07/29 06:55:52;;;;;;;2.80;2.60;;;21.10;99.90;;;;;;5036968;28;20172;-76
2023/07/29 06:58:18;;;;;;;2.93;2.83;;;21.20;99.90;;;;;;5035521;28;20188;-77
2023/07/29 07:00:44;;;;;;;3.13;2.93;;;21.20;99.90;;;;;;5035689;28;20184;-77
2023/07/29 07:03:09;;;;;;;3.00;2.80;;;21.60;99.90;;;;;;5035008;28;20255;-75
2023/07/29 07:05:35;;;;;;;2.83;2.70;;;21.20;99.90;;;;;;5036384;28;20200;-77
2023/07/29 07:08:01;;;;;;;2.70;2.50;;;21.20;99.90;;;;;;5037141;28;20678;-75
2023/07/29 07:10:27;;;;;;;3.50;3.20;;;21.20;99.90;;;;;;5037230;28;20173;-75
2023/07/29 07:12:52;;;;;;;3.73;2.77;;;21.20;99.90;;;;;;5040388;28;20165;-77
2023/07/29 07:15:18;;;;;;;3.00;2.80;;;21.20;99.90;;;;;;5042285;28;20208;-74
2023/07/29 07:17:44;;;;;;;3.87;3.37;;;21.20;99.90;;;;;;5026385;28;20195;-77
2023/07/29 07:20:10;;;;;;;2.77;2.67;;;21.20;99.90;;;;;;5002959;28;20244;-79
2023/07/29 07:22:36;;;;;;;3.60;3.30;;;21.30;99.90;;;;;;5017913;28;20662;-79
2023/07/29 07:25:02;;;;;;;5.67;4.50;;;21.40;99.90;;;;;;5045614;28;20177;-76
2023/07/29 07:27:28;;;;;;;3.30;3.00;;;21.50;99.90;;;;;;5040877;28;20215;-76
2023/07/29 07:29:54;;;;;;;4.27;2.97;;;21.70;99.90;;;;;;5035000;28;20176;-78
2023/07/29 07:32:20;;;;;;;3.57;3.27;;;21.80;99.90;;;;;;5034918;28;20177;-75
2023/07/29 07:34:46;;;;;;;3.20;3.00;;;22.00;99.90;;;;;;5034793;28;20173;-76
2023/07/29 07:37:11;;;;;;;5.53;4.53;;;22.10;99.90;;;;;;5052239;28;20161;-78
2023/07/29 07:39:37;;;;;;;3.50;3.30;;;22.20;99.90;;;;;;5038030;28;20180;-77
2023/07/29 07:42:03;;;;;;;4.77;4.13;;;22.40;99.90;;;;;;5036048;28;20173;-76
2023/07/29 07:44:29;;;;;;;4.70;4.30;;;22.50;99.90;;;;;;5034189;28;20751;-76
2023/07/29 07:46:55;;;;;;;3.00;2.72;;;22.60;99.90;;;;;;5034683;28;20291;-79
2023/07/29 07:49:21;;;;;;;3.30;2.95;;;22.80;99.90;;;;;;5034552;28;20531;-78
2023/07/29 07:51:47;;;;;;;6.40;5.07;;;22.80;99.90;;;;;;5034186;28;20183;-79
2023/07/29 07:54:12;;;;;;;3.23;3.00;;;22.80;99.90;;;;;;5046654;28;20164;-79
2023/07/29 07:56:38;;;;;;;3.30;3.00;;;22.90;99.90;;;;;;5040803;28;20188;-76
2023/07/29 07:59:04;;;;;;;3.00;2.80;;;23.10;99.90;;;;;;5034762;28;20207;-75
2023/07/29 08:01:37;;;;;;;3.67;3.27;;;23.10;99.90;;;;;;5035983;28;20243;-76
2023/07/29 08:04:03;;;;;;;2.97;2.77;;;23.10;99.90;;;;;;5018211;28;20184;-77
2023/07/29 08:06:30;;;;;;;2.90;2.70;;;23.20;99.90;;;;;;5036187;28;20208;-75
2023/07/29 08:08:56;;;;;;;3.10;2.90;;;23.30;99.90;;;;;;5034474;28;20176;-76
2023/07/29 08:11:21;;;;;;;3.17;2.90;;;23.40;99.90;;;;;;5033931;28;20264;-77
2023/07/29 08:13:47;;;;;;;3.53;3.20;;;23.30;99.90;;;;;;5034000;28;20211;-75
2023/07/29 08:16:13;;;;;;;3.40;3.00;;;23.40;99.90;;;;;;5033659;28;20176;-78
2023/07/29 08:18:39;;;;;;;3.05;2.80;;;23.50;99.90;;;;;;5033845;28;20259;-79
2023/07/29 08:21:05;;;;;;;3.30;3.03;;;23.60;99.90;;;;;;5033728;28;20255;-77
2023/07/29 08:23:32;;;;;;;3.05;2.85;;;23.70;99.90;;;;;;5033980;28;20393;-76
2023/07/29 08:26:03;;;;;;;2.50;2.40;;;23.80;99.90;;;;;;5034391;28;20204;-77
2023/07/29 08:28:38;;;;;;;2.70;2.50;;;23.90;99.90;;;;;;5034306;28;20164;-77
2023/07/29 08:31:04;;;;;;;2.60;2.50;;;23.90;99.90;;;;;;5033794;28;20164;-75
2023/07/29 08:33:32;;;;;;;2.42;2.33;;;24.00;99.90;;;;;;5015913;28;20647;-76
2023/07/29 08:35:58;;;;;;;2.47;2.38;;;24.30;99.90;;;;;;5034289;28;20176;-77
2023/07/29 08:38:24;;;;;;;2.88;2.67;;;24.30;99.90;;;;;;5035666;28;20628;-76
2023/07/29 08:41:13;;;;;;;6.35;2.70;;;24.30;99.90;;;;;;5040504;28;20173;-76
2023/07/29 08:43:46;;;;;;;2.65;2.47;;;24.40;99.90;;;;;;5007405;28;20213;-77
2023/07/29 08:46:12;;;;;;;2.70;2.50;;;24.40;99.90;;;;;;5043547;28;20659;-76
2023/07/29 08:48:42;;;;;;;2.50;2.40;;;24.40;99.90;;;;;;5023371;28;20180;-76
2023/07/29 08:51:09;;;;;;;2.53;2.33;;;24.40;99.90;;;;;;5040891;28;20180;-77
2023/07/29 08:53:36;;;;;;;2.70;2.50;;;24.40;99.90;;;;;;5056521;28;20161;-75
2023/07/29 08:56:02;;;;;;;2.60;2.40;;;24.40;99.90;;;;;;5041133;28;20184;-75
2023/07/29 08:58:29;;;;;;;2.67;2.58;;;24.60;99.90;;;;;;5039215;28;20590;-77
2023/07/29 09:00:54;;;;;;;2.30;2.20;;;24.60;99.90;;;;;;5039385;28;20644;-78
2023/07/29 09:03:21;;;;;;;2.10;2.00;;;24.70;99.90;;;;;;5052352;28;20204;-77
2023/07/29 09:05:47;;;;;;;3.03;2.83;;;24.90;99.90;;;;;;5041663;28;20253;-78
2023/07/29 09:08:15;;;;;;;2.65;2.45;;;25.00;99.90;;;;;;5042854;28;20183;-75
2023/07/29 09:10:41;;;;;;;2.55;2.45;;;24.90;99.90;;;;;;5021584;28;20185;-77
2023/07/29 09:13:07;;;;;;;2.67;2.53;;;;;;;;;;5038151;28;20257;-79
2023/07/29 09:15:35;;;;;;;2.30;2.20;;;25.10;99.90;;;;;;5040648;28;20188;-75
2023/07/29 09:18:15;;;;;;;2.70;2.50;;;25.10;99.90;;;;;;5037598;28;20195;-77
2023/07/29 09:20:41;;;;;;;2.00;1.90;;;25.20;99.90;;;;;;5037127;28;20218;-76
2023/07/29 09:23:10;;;;;;;2.40;2.30;;;25.00;99.90;;;;;;5037045;28;20172;-78
2023/07/29 09:25:36;;;;;;;2.42;2.33;;;25.70;99.90;;;;;;5039653;28;20201;-77
2023/07/29 09:28:12;;;;;;;2.20;2.10;;;25.20;99.90;;;;;;5042750;28;20243;-76
2023/07/29 09:30:39;;;;;;;2.50;2.35;;;25.30;99.90;;;;;;5038086;28;20187;-76
2023/07/29 09:33:05;;;;;;;1.90;1.80;;;25.40;99.90;;;;;;5037369;28;20188;-77
2023/07/29 09:35:34;;;;;;;2.72;2.30;;;25.50;99.90;;;;;;5038092;28;20294;-76
2023/07/29 09:38:02;;;;;;;2.30;2.20;;;25.60;99.90;;;;;;5038356;28;20168;-77
2023/07/29 09:40:33;;;;;;;2.40;2.30;;;25.70;99.90;;;;;;5037703;28;20172;-77
2023/07/29 09:42:59;;;;;;;2.50;2.40;;;25.90;99.90;;;;;;5037139;28;20156;-77
2023/07/29 09:45:27;;;;;;;2.97;2.80;;;25.70;99.90;;;;;;5035895;28;20290;-76
2023/07/29 09:47:53;;;;;;;5.47;3.53;;;26.00;99.90;;;;;;5036411;28;20177;-75
2023/07/29 09:50:26;;;;;;;2.35;2.25;;;26.00;99.90;;;;;;5036278;28;20199;-75
2023/07/29 09:52:53;;;;;;;2.05;1.95;;;26.00;99.90;;;;;;5036413;28;20161;-78
2023/07/29 09:55:26;;;;;;;2.13;2.03;;;26.10;99.90;;;;;;5034723;28;20184;-77
2023/07/29 09:58:04;;;;;;;2.28;2.17;;;26.20;99.90;;;;;;5036315;28;20164;-75
2023/07/29 10:00:32;;;;;;;2.40;2.30;;;26.10;99.90;;;;;;5018772;28;20279;-75
2023/07/29 10:02:59;;;;;;;2.50;2.40;;;26.40;99.90;;;;;;5021638;28;20361;-77
2023/07/29 10:05:26;;;;;;;2.55;2.35;;;26.30;99.90;;;;;;5038801;28;20169;-76
2023/07/29 10:07:54;;;;;;;2.10;2.00;;;26.10;99.90;;;;;;5037049;28;20165;-77
2023/07/29 10:10:20;;;;;;;2.20;2.10;;;26.20;99.90;;;;;;5036555;28;20187;-77
2023/07/29 10:12:46;;;;;;;3.05;2.03;;;26.40;99.90;;;;;;5036323;28;20272;-75
2023/07/29 10:15:12;;;;;;;2.30;2.20;;;26.30;99.90;;;;;;5036525;28;20169;-77
2023/07/29 10:17:40;;;;;;;2.63;2.25;;;26.20;99.90;;;;;;5038534;28;20558;-78
2023/07/29 10:20:10;;;;;;;3.03;2.78;;;26.50;99.90;;;;;;5019752;28;20177;-78
2023/07/29 10:22:39;;;;;;;2.05;1.98;;;26.30;99.90;;;;;;5036156;28;20183;-77
2023/07/29 10:25:09;;;;;;;3.42;2.53;;;26.30;99.90;;;;;;5035845;28;20176;-77
2023/07/29 10:27:53;;;;;;;2.65;2.55;;;26.60;99.90;;;;;;5021874;28;20698;-75
2023/07/29 10:30:19;;;;;;;2.20;2.10;;;26.60;99.90;;;;;;5018551;28;20187;-75
2023/07/29 10:32:45;;;;;;;2.67;2.58;;;26.50;99.90;;;;;;5037171;28;20192;-75
2023/07/29 10:35:15;;;;;;;2.40;2.30;;;26.50;99.90;;;;;;5028671;28;20216;-76
2023/07/29 10:37:42;;;;;;;2.67;2.47;;;26.50;99.90;;;;;;5044868;28;20636;-77
2023/07/29 10:40:10;;;;;;;2.20;2.10;;;26.60;99.90;;;;;;5047310;28;20203;-75
2023/07/29 10:42:37;;;;;;;2.33;2.22;;;26.60;99.90;;;;;;5019701;28;20176;-78
2023/07/29 10:45:22;;;;;;;3.10;2.13;;;26.50;99.90;;;;;;5018466;28;20318;-78
2023/07/29 10:47:48;;;;;;;2.63;2.42;;;26.80;99.90;;;;;;5035892;28;20180;-79
2023/07/29 10:50:22;;;;;;;2.60;2.40;;;26.80;99.90;;;;;;5038655;28;20173;-78
2023/07/29 10:52:52;;;;;;;2.17;2.08;;;26.80;99.90;;;;;;5031481;28;20698;-78
2023/07/29 10:55:36;;;;;;;1.90;1.80;;;26.80;99.90;;;;;;5035944;28;20161;-77
2023/07/29 10:58:07;;;;;;;2.97;2.80;;;26.80;99.90;;;;;;5019195;28;20161;-78
2023/07/29 11:00:33;;;;;;;2.50;2.30;;;26.90;99.90;;;;;;5035658;28;20192;-75
2023/07/29 11:03:01;;;;;;;2.20;2.10;;;27.10;99.90;;;;;;5035049;28;20176;-78
2023/07/29 11:05:41;;;;;;;2.30;2.20;;;27.10;99.90;;;;;;5034646;28;20229;-76
2023/07/29 11:08:31;;;;;;;2.03;1.92;;;27.20;99.90;;;;;;5035035;28;20164;-78
2023/07/29 11:11:06;;;;;;;1.98;1.88;;;27.50;99.20;;;;;;5035472;28;20709;-77
2023/07/29 11:13:36;;;;;;;1.75;1.65;;;27.70;98.20;;;;;;5036300;28;20237;-80
2023/07/29 11:16:04;;;;;;;1.88;1.77;;;27.70;98.20;;;;;;5035296;28;20302;-77
2023/07/29 11:18:32;;;;;;;4.97;3.58;;;27.80;96.80;;;;;;5035150;28;20169;-78
2023/07/29 11:20:58;;;;;;;3.50;3.20;;;27.80;97.20;;;;;;5035138;28;20184;-77
2023/07/29 11:23:37;;;;;;;4.47;3.42;;;27.90;97.50;;;;;;5034708;28;20636;-75
2023/07/29 11:26:04;;;;;;;4.20;2.75;;;27.80;97.80;;;;;;5042120;28;20218;-77
2023/07/29 11:28:30;;;;;;;3.95;3.25;;;27.90;98.20;;;;;;5051128;28;20490;-76
2023/07/29 11:30:57;;;;;;;2.50;2.40;;;28.00;97.50;;;;;;5037298;28;20176;-78
2023/07/29 11:33:26;;;;;;;2.40;2.30;;;28.10;97.50;;;;;;5037987;28;20172;-77
2023/07/29 11:35:52;;;;;;;3.80;3.33;;;28.30;97.70;;;;;;5039169;28;20413;-76
2023/07/29 11:38:20;;;;;;;4.22;3.85;;;28.30;97.40;;;;;;5036700;28;20183;-76
2023/07/29 11:41:00;;;;;;;2.67;2.50;;;28.40;97.20;;;;;;5034454;28;20168;-76
2023/07/29 11:43:26;;;;;;;2.40;2.30;;;28.30;97.10;;;;;;5015808;28;20187;-76
2023/07/29 11:45:53;;;;;;;2.28;2.17;;;28.30;97.20;;;;;;5036036;28;20199;-76
2023/07/29 11:48:30;;;;;;;3.33;3.13;;;28.30;97.80;;;;;;5022130;28;20235;-76
2023/07/29 11:50:57;;;;;;;15.02;7.03;;;28.20;98.30;;;;;;5037322;28;20160;-76
2023/07/29 11:53:28;;;;;;;2.67;2.50;;;28.10;99.80;;;;;;5034304;28;20173;-76
2023/07/29 11:55:54;;;;;;;2.30;2.20;;;28.00;99.80;;;;;;5033679;28;20203;-79
2023/07/29 11:58:21;;;;;;;2.10;2.00;;;28.00;99.80;;;;;;5033878;28;20632;-79
2023/07/29 12:00:47;;;;;;;2.00;1.90;;;28.00;98.80;;;;;;5033935;28;20230;-76
2023/07/29 12:03:13;;;;;;;2.10;2.00;;;28.00;99.10;;;;;;5033773;28;20616;-76
2023/07/29 12:05:39;;;;;;;2.13;2.03;;;28.00;98.80;;;;;;5030292;28;20209;-76
2023/07/29 12:08:05;;;;;;;2.08;1.98;;;28.00;99.00;;;;;;5026922;28;20320;-77
2023/07/29 12:10:32;;;;;;;2.10;2.00;;;27.90;99.20;;;;;;5034914;28;20225;-76
2023/07/29 12:12:58;;;;;;;2.33;2.22;;;27.90;99.20;;;;;;5018467;28;20183;-75
2023/07/29 12:15:28;;;;;;;4.15;3.88;;;27.90;99.30;;;;;;5046159;28;20261;-74
2023/07/29 12:17:56;;;;;;;2.05;1.95;;;28.00;99.90;;;;;;5050443;28;20267;-76
2023/07/29 12:20:22;;;;;;;2.00;1.98;;;27.90;99.40;;;;;;5019036;28;20168;-76
2023/07/29 12:23:02;;;;;;;2.20;2.10;;;28.00;99.40;;;;;;5035300;28;20172;-75
2023/07/29 12:25:28;;;;;;;2.22;2.13;;;28.10;99.40;;;;;;5034297;28;20157;-77
2023/07/29 12:27:54;;;;;;;2.13;2.00;;;28.30;99.30;;;;;;5039591;28;20177;-76
2023/07/29 12:30:24;;;;;;;2.20;2.10;;;28.40;99.50;;;;;;5048436;28;20254;-76
2023/07/29 12:32:50;;;;;;;2.83;2.30;;;28.50;99.50;;;;;;5034961;28;20215;-77
2023/07/29 12:35:16;;;;;;;2.00;1.90;;;28.60;99.60;;;;;;5034019;28;20172;-76
2023/07/29 12:37:42;;;;;;;2.67;2.58;;;28.70;99.90;;;;;;5033378;28;20177;-77
2023/07/29 12:40:22;;;;;;;2.47;2.28;;;28.80;99.60;;;;;;5033602;28;20867;-76
2023/07/29 12:42:50;;;;;;;2.40;2.30;;;28.80;99.50;;;;;;5033424;28;20584;-76
2023/07/29 12:45:17;;;;;;;2.30;2.20;;;29.00;99.20;;;;;;5033557;28;20224;-75
2023/07/29 12:47:43;;;;;;;2.40;2.30;;;29.20;98.80;;;;;;5033384;28;20215;-77
2023/07/29 12:50:09;;;;;;;2.28;2.17;;;29.30;98.10;;;;;;5033815;28;20693;-78